HOURLY OBSERVATIONS


Time
(EST)
Temperature
°F
Dew Point
°F
Humidity
%
Wind
mph
Pressure
mb
Precip.
Hour
in
Precip.
Day
in
6 Hr
Max Temp
°F
6 Hr
Min Temp
°F
20 13:00 86 73 67 WSW 1 G 10 1015.6 0.00 86 69
20 12:00 84 73 68 SW 1 G 8 1016.5 0.00
20 11:00 83 72 69 SSW 0 G 13 1017.2 0.00
20 10:00 83 72 71 S 1 G 4 1017.6 0.00
20 09:00 83 73 70 ESE 1 G 5 1016.7 0.00
20 08:00 76 70 81 Calm 1017.5 0.00
20 07:00 69 67 92 Calm 1017.6 0.00 71 68
20 06:00 69 66 91 S 0 G 2 1017.7 0.00
20 05:00 68 65 90 Calm 1017.3 0.00
20 04:00 69 66 90 E 2 G 5 1017.2 0.00
20 03:00 70 66 89 Calm 1017.4 0.00
20 02:00 71 67 88 Calm 1017.4 0.00
20 01:00 71 67 86 Calm 1017.4 0.00 71 71
19 12:00 79 68 71 SW 1 G 5 1016.7 0.08
19 11:00 77 65 68 SSW 1 G 5 1017.0 0.08
19 10:00 75 65 72 SW 1 G 3 1016.6 0.08
19 09:00 71 66 82 Calm 1016.4 0.08
19 08:00 67 65 93 Calm 1016.1 0.08
19 07:00 65 63 93 Calm 1015.8 0.08 67 64
19 06:00 64 62 92 Calm 1014.8 0.08
19 05:00 65 63 92 NW 0 G 2 1014.1 0.08
19 04:00 66 63 92 SW 0 G 1 1013.3 0.08
19 03:00 66 63 91 SW 1 G 5 1012.7 0.01 0.08
19 02:00 67 64 91 E 0 G 1 1012.5 0.01 0.07
19 01:00 67 64 90 SSW 0 G 5 1014.1 0.06 0.06 77 67
19 00:00 69 65 87 WNW 2 G 7 1014.9 0.10 0.18
18 23:00 76 71 84 SSW 4 G 9 1011.4 0.08
18 22:00 76 71 84 SSW 2 G 6 1011.4 0.08
18 21:00 74 69 87 SW 2 G 8 1011.1 0.08
18 20:00 71 67 87 SSE 2 G 5 1010.1 0.08
18 19:00 70 65 86 S 2 G 5 1010.1 0.08 88 70
18 18:00 70 66 87 ESE 0 G 5 1010.7 0.04 0.08
18 17:00 77 68 72 SW 10 G 33 1013.2 0.03 0.04
18 16:00 85 72 66 WSW 3 G 15 1011.6 0.01 0.01
18 15:00 87 74 66 SSW 2 G 12 1011.7 0.00
18 14:00 87 74 66 WSW 2 G 12 1012.4 0.00
18 13:00 86 74 68 SSW 3 G 13 1012.8 0.00 86 0
18 12:00 84 72 68 SW 2 G 7 1013.0 0.00
18 08:00 75 64 68 Calm 1014.9 0.00
18 07:00 75 64 68 Calm 1014.9 0.00 75 75
18 06:00 75 64 68 Calm 1014.9 0.00
18 05:00 75 64 68 Calm 1014.9 0.00
18 04:00 75 64 68 Calm 1014.9 0.00
18 03:00 75 64 68 Calm 1014.9 0.00
18 02:00 75 64 68 Calm 1014.9 0.00
18 01:00 75 64 68 Calm 1014.9 0.00 75 75
18 00:00 75 64 68 Calm 1014.9 0.00
17 23:00 75 64 68 Calm 1014.9 0.00
17 22:00 75 64 68 Calm 1014.9 0.00
17 21:00 75 64 68 Calm 1014.9 0.00
17 20:00 75 64 68 Calm 1014.9 0.00
17 19:00 75 64 68 Calm 1014.9 0.00 75 75
17 18:00 75 64 68 Calm 1014.9 0.00
17 17:00 75 64 68 Calm 1014.9 0.00
17 16:00 75 64 68 Calm 1014.9 0.00
17 15:00 75 64 68 Calm 1014.9 0.00
17 14:00 75 64 68 Calm 1014.9 0.00